Terminal Aerodrome Forecast
Issued by NWS San Angelo, TX

Home | Current Version | Previous Version | Text Only | Print | Product List | Glossary On
Versions: 1 2 3 4 5 6 7 8 9 10 11 12 13 14 15 16 17 18 19 20 21 22 23
750
FTUS44 KSJT 172320
TAFSJT
TAF
KSJT 172320Z 1800/1824 20011KT P6SM SKC
     FM181000 24011KT P6SM FEW250
     FM181300 28011KT P6SM SCT250
     FM181600 33018G24KT P6SM SCT250
     FM182000 01011KT P6SM SKC=

USA.gov is the U.S. government's official web portal to all federal, state and local government web resources and services.